logo
Search for airport 
image banner adimage banner adimage banner ad
image banner ad

YBEG - Bening Field

Located in Dotswood, Australia

ICAO - , IATA -

Data provided by Airmate  

General information

Coordinates: S19°39'11" E146°17'38"
Elevation is 1015 feet MSL.
Magnetic variation is 7° East
View others Airports in Queensland

Operational data

Special qualification required
Current time UTC:
Current local time:
METAR: YBTL 260300Z 07019KT 9999 FEW040 27/17 Q1017
TAF: TAF YBTL 260212Z 2603/2700 07018KT 9999 FEW040 FM260800 10012KT 9999 FEW025 FM261400 15007KT 9999 SCT025
View NOTAMs / SUP AIP / TFR affecting this airport [VIEW]
Communications frequencies: [VIEW]

Runways:

RWY identifierQFULength (ft)Width (ft)SurfaceLDA (ft)
0774°558771DIRT
25254°558771DIRT

Airport contact information

Address: Dotswood Australia

Satellite view of YBEG